Haileyville, Oklahoma
Current Conditions -  °F | °C
As of 1:53 AM on Friday 28 Nov 2014 (Local Time) from KMLC Reporting Station
Few Clouds Few Clouds  
Wind Chill: 39°   Ceiling: Unl
Heat Index: 44°   Visibility: 10mi
Dew Point: 27°   Wind: 9mph
Humidity: 51%   Direction: 180°S
Pressure: 30.28"   Gusts: 21mph
Location:  34.85°N, 95.58°W
Report Text: KMLC 280753Z AUTO 18008G18KT 10SM FEW110 07/M03 A3028 RMK AO2 SLP252 T00671028
Loading
Personal Weather Stations






























Interactive Weather Map New forecast layout! Learn more

10-Day Weather Forecast

Advertisements
Track Severe Weather on mobile